Time;durP1;ratioP1;P1;durP2;ratioP2;P2;SDS_P1;SDS_P2;PMS_P1;PMS_P2;Temp;Humidity;BMP_temperature;BMP_pressure;BME280_temperature;BME280_humidity;BME280_pressure;Samples;Min_cycle;Max_cycle;Signal;HPM_P1;HPM_P2
2021/01/23 00:02:21;;;;;;;15.93;8.07;;;5.20;71.20;;;3.45;68.02;93443.22;4989084;28;20122;-73
2021/01/23 00:04:46;;;;;;;14.93;7.97;;;5.10;71.80;;;3.45;67.80;93432.03;4991542;28;20038;-73
2021/01/23 00:07:12;;;;;;;12.63;7.97;;;5.10;71.50;;;3.43;68.69;93423.66;4992350;28;20038;-73
2021/01/23 00:09:38;;;;;;;12.68;7.57;;;5.10;71.70;;;3.40;68.29;93419.69;4991013;28;20069;-73
2021/01/23 00:12:05;;;;;;;13.73;7.88;;;5.00;71.80;;;3.36;68.64;93413.28;4992416;28;20046;-73
2021/01/23 00:14:31;;;;;;;12.85;7.65;;;5.00;72.10;;;3.31;68.22;93421.72;4990943;28;20110;-71
2021/01/23 00:16:57;;;;;;;11.43;7.38;;;4.90;72.50;;;3.27;68.16;93415.34;4973987;28;20601;-71
2021/01/23 00:19:23;;;;;;;12.20;7.28;;;4.80;72.90;;;3.26;69.11;93421.56;4974863;28;20044;-71
2021/01/23 00:21:50;;;;;;;13.60;7.28;;;4.80;72.90;;;3.20;69.23;93419.00;4992239;28;20122;-72
2021/01/23 00:24:16;;;;;;;11.90;7.85;;;4.70;73.80;;;3.16;69.20;93418.59;4991858;28;20035;-72
2021/01/23 00:26:43;;;;;;;15.70;8.25;;;4.70;73.90;;;3.15;69.72;93416.22;4991209;28;20085;-71
2021/01/23 00:29:14;;;;;;;13.20;7.75;;;4.70;74.10;;;3.13;70.56;93423.44;4992061;28;20450;-71
2021/01/23 00:31:41;;;;;;;12.65;8.20;;;4.70;74.40;;;3.11;69.37;93430.63;4991972;28;20038;-72
2021/01/23 00:34:10;;;;;;;13.45;8.93;;;4.60;74.80;;;3.06;69.91;93441.66;4990101;28;20058;-71
2021/01/23 00:36:36;;;;;;;18.85;9.93;;;4.50;75.40;;;3.03;70.24;93445.47;4991685;28;20041;-72
2021/01/23 00:39:04;;;;;;;15.77;9.77;;;4.50;75.80;;;2.99;70.36;93459.88;4990278;28;20062;-72
2021/01/23 00:41:29;;;;;;;16.58;9.93;;;4.40;76.20;;;2.98;70.44;93463.47;4974261;28;20034;-72
2021/01/23 00:43:55;;;;;;;15.35;9.55;;;4.50;76.30;;;2.98;69.94;93473.84;4991422;28;20030;-73
2021/01/23 00:46:21;;;;;;;16.33;9.73;;;4.60;76.40;;;2.98;70.48;93479.03;4991156;28;20038;-72
2021/01/23 00:48:48;;;;;;;14.27;9.43;;;4.60;76.40;;;2.99;71.06;93491.03;4990334;28;20069;-72
2021/01/23 00:51:14;;;;;;;14.63;9.50;;;4.60;76.70;;;2.99;70.79;93495.41;4990306;28;20105;-72
2021/01/23 00:53:39;;;;;;;17.27;10.20;;;4.60;76.90;;;2.99;70.69;93501.41;4991552;28;20160;-72
2021/01/23 00:56:06;;;;;;;19.10;9.95;;;4.60;77.50;;;2.99;70.87;93504.00;4989614;28;20621;-71
2021/01/23 00:58:31;;;;;;;15.63;9.85;;;4.70;77.30;;;3.03;70.98;93507.78;4990030;28;20114;-72
2021/01/23 01:00:57;;;;;;;15.88;9.13;;;4.70;77.20;;;3.07;71.47;93514.16;4989303;28;20675;-71
2021/01/23 01:03:23;;;;;;;18.25;11.10;;;4.70;77.10;;;3.06;71.76;93522.16;4991563;28;20033;-72
2021/01/23 01:05:49;;;;;;;16.52;9.75;;;4.70;77.80;;;3.06;71.83;93530.72;4991534;28;20514;-71
2021/01/23 01:08:15;;;;;;;20.08;10.63;;;4.70;77.90;;;3.05;71.58;93536.94;4991297;28;20818;-72
2021/01/23 01:10:45;;;;;;;19.15;11.20;;;4.70;78.10;;;3.05;72.07;93547.31;4989603;28;20137;-72
2021/01/23 01:13:14;;;;;;;17.05;10.20;;;4.60;78.50;;;3.05;73.89;93547.31;4989676;28;20402;-71
2021/01/23 01:15:40;;;;;;;16.40;10.35;;;4.70;78.60;;;3.08;72.63;93559.88;4990270;28;20041;-72
2021/01/23 01:18:07;;;;;;;16.55;11.27;;;4.80;78.50;;;3.11;72.07;93557.88;4991086;28;20122;-72
2021/01/23 01:20:32;;;;;;;18.42;11.55;;;4.70;78.80;;;3.08;72.74;93572.88;4989802;28;20034;-71
2021/01/23 01:22:58;;;;;;;18.25;11.85;;;4.70;79.10;;;3.11;72.66;93581.25;4990104;28;20110;-72
2021/01/23 01:25:25;;;;;;;17.60;11.93;;;4.70;79.30;;;3.12;73.17;93590.63;4991320;28;20302;-72
2021/01/23 01:27:51;;;;;;;17.45;11.73;;;4.80;79.60;;;3.12;73.20;93593.22;4972733;28;20042;-72
2021/01/23 01:30:17;;;;;;;18.92;12.35;;;4.80;79.90;;;3.12;73.85;93598.41;4991433;28;20039;-72
2021/01/23 01:32:43;;;;;;;19.83;12.23;;;4.70;80.50;;;3.07;73.42;93607.63;4990277;28;20062;-72
2021/01/23 01:35:09;;;;;;;18.13;12.05;;;4.80;80.80;;;3.12;74.48;93619.19;4990862;28;20213;-75
2021/01/23 01:37:35;;;;;;;19.00;13.45;;;4.70;81.50;;;3.13;74.20;93620.78;4990331;28;20532;-72
2021/01/23 01:40:01;;;;;;;18.02;12.85;;;4.80;81.50;;;3.06;74.42;93611.22;4972034;28;20038;-72
2021/01/23 01:42:27;;;;;;;17.25;12.38;;;4.70;82.20;;;3.12;74.82;93624.38;4973264;28;20150;-72
2021/01/23 01:44:53;;;;;;;17.92;12.07;;;4.70;82.40;;;3.12;74.90;93634.78;4989633;28;20510;-72
2021/01/23 01:47:19;;;;;;;18.45;11.88;;;4.80;82.50;;;3.12;75.18;93635.56;4990126;28;20037;-72
2021/01/23 01:49:46;;;;;;;16.92;11.85;;;4.80;82.60;;;3.15;75.76;93639.56;4989206;28;20042;-72
2021/01/23 01:52:13;;;;;;;17.52;12.35;;;4.80;82.40;;;3.15;75.83;93644.75;4973537;28;20031;-72
2021/01/23 01:54:39;;;;;;;17.40;12.20;;;4.70;83.00;;;3.15;75.50;93655.13;4988372;28;20030;-72
2021/01/23 01:57:05;;;;;;;16.92;12.30;;;4.80;82.90;;;3.14;75.87;93664.72;4972473;28;20034;-72
2021/01/23 01:59:31;;;;;;;17.25;11.73;;;4.70;83.30;;;3.06;75.69;93647.56;4990788;28;20042;-72
2021/01/23 02:02:38;;;;;;;14.45;11.30;;;4.70;83.50;;;3.11;81.14;93666.94;4969259;28;20074;-72
2021/01/23 02:05:16;;;;;;;15.30;10.55;;;4.70;83.50;;;3.13;79.34;93667.53;4977937;28;20117;-72
2021/01/23 02:07:54;;;;;;;16.58;11.18;;;4.80;83.40;;;3.12;79.51;93686.72;4988616;28;20043;-73
2021/01/23 02:10:40;;;;;;;14.93;10.90;;;4.70;83.70;;;3.10;80.91;93691.31;4988759;28;20035;-72
2021/01/23 02:13:20;;;;;;;14.70;10.23;;;4.70;84.00;;;3.06;79.23;93699.50;4988342;28;20522;-72
2021/01/23 02:15:56;;;;;;;15.38;10.20;;;4.60;84.30;;;3.03;80.12;93710.31;4969177;28;20403;-73
2021/01/23 02:18:22;;;;;;;12.25;9.10;;;4.60;84.50;;;3.02;77.24;93719.09;4979479;28;20094;-73
2021/01/23 02:21:08;;;;;;;8.73;7.30;;;4.60;84.20;;;3.02;78.49;93734.69;4971914;28;20033;-72
2021/01/23 02:23:37;;;;;;;6.38;5.22;;;4.60;83.30;;;2.95;77.08;93740.88;4989327;28;20314;-72
2021/01/23 02:26:32;;;;;;;6.78;4.57;;;4.40;82.50;;;2.80;78.45;93733.28;4956878;28;20121;-72
2021/01/23 02:29:08;;;;;;;5.03;3.40;;;4.30;82.80;;;2.75;79.45;93748.66;4971370;28;20054;-72
2021/01/23 02:31:55;;;;;;;5.10;3.13;;;4.10;82.80;;;2.64;79.09;93757.00;4988590;28;20434;-72
2021/01/23 02:34:23;;;;;;;4.47;3.03;;;3.90;82.50;;;2.55;77.87;93747.81;4957735;28;20125;-72
2021/01/23 02:36:49;;;;;;;4.00;3.03;;;3.90;82.80;;;2.49;76.88;93753.78;4955487;28;20046;-73
2021/01/23 02:39:15;;;;;;;3.80;2.80;;;3.80;82.40;;;2.42;76.40;93770.16;4968769;28;20049;-73
2021/01/23 02:41:41;;;;;;;3.70;2.70;;;3.80;82.50;;;2.36;77.05;93786.50;4954732;28;20137;-72
2021/01/23 02:44:07;;;;;;;3.08;2.05;;;3.80;82.50;;;2.27;76.95;93787.69;4956239;28;20514;-72
2021/01/23 02:46:32;;;;;;;3.50;2.38;;;3.60;81.90;;;2.21;76.89;93788.44;4986436;28;20030;-72
2021/01/23 02:48:58;;;;;;;3.30;2.00;;;3.60;82.10;;;2.09;76.21;93790.78;4963465;28;20039;-73
2021/01/23 02:51:43;;;;;;;3.80;2.03;;;3.40;82.80;;;1.99;79.26;93802.50;4979531;28;20069;-73
2021/01/23 02:54:17;;;;;;;2.50;1.65;;;3.30;82.80;;;1.84;77.94;93800.06;4982268;28;20043;-73
2021/01/23 02:56:43;;;;;;;4.00;1.90;;;3.10;83.00;;;1.72;77.27;93793.81;4971438;28;20054;-73
2021/01/23 02:59:09;;;;;;;3.00;1.50;;;3.10;83.20;;;1.66;77.03;93810.91;4970979;28;20057;-73
2021/01/23 03:01:37;;;;;;;2.17;1.27;;;3.10;83.50;;;1.67;76.99;93822.88;4956127;28;20509;-72
2021/01/23 03:04:03;;;;;;;2.08;1.40;;;3.00;83.50;;;1.56;78.07;93835.53;4988124;28;20516;-73
2021/01/23 03:06:30;;;;;;;3.45;1.80;;;2.70;84.40;;;1.49;77.81;93840.69;4989619;28;20042;-73
2021/01/23 03:08:56;;;;;;;1.50;1.10;;;2.90;84.20;;;1.45;78.14;93849.84;4988583;28;20034;-73
2021/01/23 03:11:21;;;;;;;1.92;1.40;;;2.80;84.30;;;1.40;78.16;93867.72;4989351;28;20045;-74
2021/01/23 03:13:47;;;;;;;1.42;0.95;;;2.70;84.50;;;1.33;77.48;93878.00;4989039;28;20454;-73
2021/01/23 03:16:13;;;;;;;1.67;1.10;;;2.70;84.50;;;1.27;77.34;93889.13;4987851;28;20402;-73
2021/01/23 03:18:38;;;;;;;1.95;1.15;;;2.60;84.80;;;1.20;77.86;93868.38;4988463;28;20038;-74
2021/01/23 03:21:04;;;;;;;1.55;0.80;;;2.60;85.20;;;1.18;78.10;93872.13;4989675;28;20061;-74
2021/01/23 03:23:30;;;;;;;1.50;0.90;;;2.60;85.20;;;1.10;78.74;93883.41;4988738;28;20069;-73
2021/01/23 03:25:56;;;;;;;1.50;0.90;;;2.60;85.40;;;1.07;78.40;93898.50;4989543;28;20121;-73
2021/01/23 03:28:21;;;;;;;1.25;0.82;;;2.50;85.60;;;1.04;78.31;93912.63;4988846;28;20035;-74
2021/01/23 03:30:47;;;;;;;1.33;0.85;;;2.40;85.70;;;1.03;78.74;93933.50;4988982;28;20514;-75
2021/01/23 03:33:13;;;;;;;1.52;1.02;;;2.50;85.70;;;1.01;79.21;93940.66;4988809;28;20522;-73
2021/01/23 03:35:39;;;;;;;1.42;0.80;;;2.50;85.50;;;0.98;79.02;93941.81;4988810;28;20035;-73
2021/01/23 03:38:05;;;;;;;1.45;1.02;;;2.60;85.40;;;0.98;78.68;93952.19;4988964;28;20109;-74
2021/01/23 03:40:30;;;;;;;1.75;1.00;;;2.40;85.60;;;0.96;79.22;93955.94;4991572;28;20061;-74
2021/01/23 03:42:56;;;;;;;1.67;1.15;;;2.40;85.70;;;0.94;79.21;93956.13;4992172;28;20686;-73
2021/01/23 03:45:22;;;;;;;1.30;0.90;;;2.40;85.60;;;0.93;79.09;93948.53;4992919;28;20042;-73
2021/01/23 03:47:48;;;;;;;1.83;1.00;;;2.40;85.70;;;0.89;79.02;93948.09;4991213;28;20042;-73
2021/01/23 03:50:13;;;;;;;1.90;1.17;;;2.40;85.90;;;0.86;79.06;93957.00;4992663;28;20422;-74
2021/01/23 03:52:39;;;;;;;1.45;1.00;;;2.30;86.00;;;0.86;79.52;93953.63;4992196;28;20089;-74
2021/01/23 03:55:07;;;;;;;1.25;0.90;;;2.40;85.80;;;0.85;79.88;93952.03;4992839;28;20038;-73
2021/01/23 03:57:33;;;;;;;1.30;1.00;;;2.40;85.80;;;0.72;80.07;93946.72;4991560;28;20035;-73
2021/01/23 03:59:59;;;;;;;1.75;1.13;;;2.20;86.20;;;0.76;79.71;93963.47;4990925;28;20141;-73
2021/01/23 04:02:25;;;;;;;1.50;0.95;;;2.20;86.50;;;0.69;79.76;93968.56;4992903;28;20077;-73
2021/01/23 04:04:51;;;;;;;1.48;1.13;;;2.20;86.50;;;0.76;80.33;93986.75;4989731;28;20084;-73
2021/01/23 04:07:16;;;;;;;2.13;1.13;;;2.20;86.20;;;0.74;80.26;93991.31;4992263;28;20027;-73
2021/01/23 04:09:42;;;;;;;1.25;0.88;;;2.20;86.50;;;0.75;80.54;94004.06;4992505;28;20524;-73
2021/01/23 04:12:08;;;;;;;1.60;1.10;;;2.30;86.40;;;0.76;80.53;94005.69;4991130;28;20030;-73
2021/01/23 04:14:34;;;;;;;1.42;0.88;;;2.30;86.10;;;0.75;80.27;94013.63;4992386;28;20568;-73
2021/01/23 04:16:59;;;;;;;0.93;0.70;;;2.30;86.40;;;0.74;80.52;93996.50;4991229;28;20073;-73
2021/01/23 04:19:25;;;;;;;1.27;0.88;;;2.20;86.30;;;0.74;80.16;94014.59;4992637;28;20033;-73
2021/01/23 04:21:51;;;;;;;1.13;0.80;;;2.20;86.40;;;0.71;80.60;94007.19;4990857;28;20648;-73
2021/01/23 04:24:16;;;;;;;0.95;0.70;;;2.10;86.50;;;0.71;81.02;94012.38;4991786;28;20539;-74
2021/01/23 04:26:42;;;;;;;0.98;0.80;;;2.20;86.40;;;0.71;80.54;94012.38;4990021;28;20026;-74
2021/01/23 04:29:08;;;;;;;0.57;0.43;;;2.20;86.70;;;0.70;81.01;94014.16;4991894;28;20596;-73
2021/01/23 04:31:35;;;;;;;0.75;0.63;;;2.20;86.50;;;0.71;80.50;94017.56;4990738;28;20022;-73
2021/01/23 04:34:01;;;;;;;0.82;0.60;;;2.30;86.50;;;0.67;80.75;94021.44;4992294;28;20125;-74
2021/01/23 04:36:27;;;;;;;0.63;0.50;;;2.20;86.70;;;0.64;80.96;94038.13;4991649;28;20108;-73
2021/01/23 04:38:53;;;;;;;0.57;0.50;;;2.10;86.80;;;0.63;80.73;94061.59;4991225;28;20122;-74
2021/01/23 04:41:18;;;;;;;1.23;0.65;;;2.10;87.20;;;0.62;80.86;94055.63;4990689;28;20687;-73
2021/01/23 04:43:45;;;;;;;1.10;0.55;;;2.20;87.00;;;0.63;81.01;94046.09;4990213;28;20046;-73
2021/01/23 04:46:12;;;;;;;0.45;0.40;;;2.10;87.00;;;0.61;81.53;94060.00;4990438;28;20038;-73
2021/01/23 04:48:37;;;;;;;0.40;0.40;;;2.20;86.80;;;0.62;81.14;94065.97;4986623;28;20034;-74
2021/01/23 04:51:03;;;;;;;0.50;0.50;;;2.20;87.10;;;0.61;81.46;94059.19;4989587;28;20084;-70
2021/01/23 04:53:29;;;;;;;0.57;0.57;;;2.10;86.90;;;0.58;81.06;94065.53;4989710;28;20046;-69
2021/01/23 04:55:55;;;;;;;0.47;0.47;;;2.10;87.20;;;0.54;81.44;94064.28;4999430;28;20034;-66
2021/01/23 04:58:20;;;;;;;0.65;0.60;;;2.10;87.60;;;0.54;81.43;94079.81;4991250;28;20043;-68
2021/01/23 05:00:46;;;;;;;0.40;0.40;;;2.00;87.60;;;0.52;81.85;94078.38;4989663;28;20081;-73
2021/01/23 05:03:12;;;;;;;0.80;0.65;;;2.00;87.80;;;0.50;81.56;94083.72;4992259;28;20069;-70
2021/01/23 05:05:37;;;;;;;0.50;0.30;;;2.00;87.50;;;0.50;81.63;94094.06;4973616;28;20085;-70
2021/01/23 05:08:13;;;;;;;0.35;0.35;;;2.10;87.40;;;0.51;84.22;94089.69;4997979;28;20099;-70
2021/01/23 05:10:39;;;;;;;0.40;0.40;;;2.00;87.20;;;0.47;82.10;94089.25;4995889;28;20038;-70
2021/01/23 05:13:17;;;;;;;1.67;0.30;;;1.90;87.90;;;0.45;84.63;94078.25;5006967;28;20065;-70
2021/01/23 05:15:44;;;;;;;0.30;0.30;;;2.00;88.30;;;0.44;82.16;94087.00;4990954;28;20034;-68
2021/01/23 05:18:10;;;;;;;0.40;0.40;;;1.90;88.10;;;0.43;82.26;94098.31;5004134;28;20446;-68
2021/01/23 05:20:54;;;;;;;0.60;0.40;;;1.90;88.10;;;0.42;84.83;94091.53;4997476;28;20042;-69
2021/01/23 05:23:24;;;;;;;0.28;0.28;;;1.90;88.20;;;0.41;82.76;94095.13;4989226;28;20594;-69
2021/01/23 05:26:00;;;;;;;0.70;0.55;;;1.90;88.30;;;0.37;84.69;94104.22;4990658;28;20507;-69
2021/01/23 05:28:33;;;;;;;1.90;1.42;;;1.80;88.30;;;0.37;83.68;94116.34;4989271;28;20046;-68
2021/01/23 05:31:00;;;;;;;0.68;0.50;;;1.80;88.60;;;0.36;82.31;94119.91;4989083;28;20034;-69
2021/01/23 05:33:27;;;;;;;2.10;0.70;;;1.90;88.60;;;0.37;82.98;94126.66;4991175;28;20084;-69
2021/01/23 05:36:10;;;;;;;0.73;0.40;;;1.90;88.40;;;0.35;84.88;94132.03;4990396;28;20042;-68
2021/01/23 05:38:43;;;;;;;0.40;0.40;;;1.90;88.50;;;0.34;83.82;94129.63;4989918;28;20514;-68
2021/01/23 05:41:08;;;;;;;0.57;0.40;;;1.90;88.20;;;0.35;82.75;94126.84;4977443;28;20038;-69
2021/01/23 05:43:37;;;;;;;0.68;0.50;;;1.90;88.50;;;0.32;83.25;94137.53;4990567;28;20045;-68
2021/01/23 05:46:11;;;;;;;0.35;0.32;;;1.80;88.80;;;0.31;84.33;94130.78;4990572;28;20142;-68
2021/01/23 05:48:40;;;;;;;0.65;0.45;;;1.80;88.60;;;0.32;84.04;94142.72;4984688;28;20038;-66
2021/01/23 05:51:06;;;;;;;1.98;0.40;;;1.80;88.50;;;0.29;83.41;94159.38;4988614;28;20431;-67
2021/01/23 05:53:32;;;;;;;0.50;0.30;;;1.80;88.50;;;0.30;83.01;94165.38;4990635;28;20049;-67
2021/01/23 05:56:01;;;;;;;0.73;0.47;;;1.80;88.70;;;0.24;83.58;94158.31;4973160;28;20156;-67
2021/01/23 05:58:31;;;;;;;6.40;3.30;;;1.80;88.50;;;0.29;84.62;94174.09;4989023;28;20053;-67
2021/01/23 06:00:58;;;;;;;1.38;0.80;;;1.80;88.80;;;0.31;83.40;94177.31;4988290;28;20038;-68
2021/01/23 06:03:34;;;;;;;2.20;1.38;;;1.80;88.60;;;0.30;84.36;94178.28;4973197;28;20035;-67
2021/01/23 06:06:00;;;;;;;3.55;2.35;;;1.80;88.60;;;0.33;83.06;94174.56;4990412;28;20070;-67
2021/01/23 06:08:48;;;;;;;1.88;1.17;;;1.90;88.50;;;0.33;85.50;94175.34;4988791;28;20546;-67
2021/01/23 06:11:19;;;;;;;1.58;1.30;;;1.90;88.50;;;0.32;84.45;94173.75;4990208;28;20102;-68
2021/01/23 06:13:49;;;;;;;7.05;3.45;;;1.90;88.20;;;0.35;84.49;94182.94;4990100;28;20046;-67
2021/01/23 06:16:33;;;;;;;4.72;2.63;;;1.90;88.20;;;0.35;84.70;94194.06;4990061;28;20100;-67
2021/01/23 06:19:05;;;;;;;1.23;0.80;;;1.90;88.10;;;0.36;83.77;94213.78;4970367;28;20046;-68
2021/01/23 06:21:42;;;;;;;0.80;0.60;;;2.00;88.10;;;0.37;84.34;94232.69;4970670;28;20050;-68
2021/01/23 06:24:14;;;;;;;2.97;1.55;;;1.90;87.70;;;0.33;83.32;94221.09;4970810;28;20042;-67
2021/01/23 06:26:57;;;;;;;1.58;1.00;;;2.00;87.60;;;0.42;85.24;94253.66;4997721;28;20536;-67
2021/01/23 06:29:39;;;;;;;0.93;0.65;;;2.10;87.60;;;0.44;84.91;94255.09;4970738;28;20047;-68
2021/01/23 06:32:14;;;;;;;1.20;0.88;;;2.10;87.40;;;0.43;85.47;94263.84;4990044;28;20126;-71
2021/01/23 06:34:59;;;;;;;1.33;0.90;;;2.10;87.50;;;0.44;84.16;94275.78;4989361;28;20093;-68
2021/01/23 06:37:33;;;;;;;1.13;0.90;;;2.00;87.60;;;0.42;83.78;94266.59;4988366;28;20096;-68
2021/01/23 06:40:11;;;;;;;1.48;0.70;;;2.00;87.70;;;0.41;84.46;94260.63;4990023;28;20042;-68
2021/01/23 06:42:41;;;;;;;2.30;1.50;;;2.00;87.50;;;0.39;83.90;94247.06;4988762;28;20030;-68
2021/01/23 06:45:24;;;;;;;4.50;2.20;;;1.90;87.80;;;0.41;84.56;94265.78;5009106;28;20117;-68
2021/01/23 06:47:57;;;;;;;4.38;2.13;;;2.10;87.80;;;0.42;84.67;94267.41;5008965;28;20442;-68
2021/01/23 06:50:41;;;;;;;2.15;1.40;;;2.10;87.50;;;0.41;85.37;94265.78;4988520;28;20081;-67
2021/01/23 06:53:28;;;;;;;2.20;1.40;;;2.00;87.30;;;0.44;83.33;94280.16;5000368;28;20045;-67
2021/01/23 06:55:55;;;;;;;1.52;1.02;;;2.10;87.30;;;0.44;83.39;94280.97;5008668;28;20556;-68
2021/01/23 06:58:34;;;;;;;1.10;0.90;;;2.10;87.30;;;0.38;85.34;94281.66;5009023;28;20038;-68
2021/01/23 07:01:01;;;;;;;1.23;1.00;;;2.10;87.30;;;0.47;83.12;94300.53;4991241;28;20042;-68
2021/01/23 07:03:27;;;;;;;1.30;1.00;;;2.10;87.30;;;0.48;83.52;94302.94;5009443;28;20045;-68
2021/01/23 07:06:01;;;;;;;1.70;1.08;;;2.20;87.20;;;0.51;84.00;94302.59;5007581;28;20058;-68
2021/01/23 07:08:37;;;;;;;3.40;1.20;;;2.20;86.80;;;0.52;84.59;94316.34;4992994;28;20046;-68
2021/01/23 07:11:13;;;;;;;1.45;1.17;;;2.20;87.10;;;0.53;84.47;94316.16;4987733;28;20055;-68
2021/01/23 07:13:57;;;;;;;3.05;2.00;;;2.20;86.80;;;0.53;84.65;94315.34;4988529;28;20039;-70
2021/01/23 07:16:24;;;;;;;3.30;1.90;;;2.20;86.90;;;0.53;83.35;94320.53;4988842;28;20120;-69
2021/01/23 07:19:00;;;;;;;3.60;2.40;;;2.20;87.10;;;0.54;83.89;94320.34;4987373;28;20042;-68
2021/01/23 07:21:26;;;;;;;8.30;4.22;;;2.20;87.20;;;0.55;83.07;94328.91;4989387;28;20042;-68
2021/01/23 07:23:53;;;;;;;6.13;3.83;;;2.20;87.10;;;0.56;83.39;94333.91;4987951;28;20387;-70
2021/01/23 07:26:19;;;;;;;4.07;2.58;;;2.30;86.90;;;0.51;82.86;94323.28;4971160;28;20030;-70
2021/01/23 07:28:49;;;;;;;2.63;1.98;;;2.30;86.40;;;0.59;83.96;94341.34;4987995;28;20053;-70
2021/01/23 07:31:31;;;;;;;4.07;2.45;;;2.30;86.40;;;0.61;84.80;94348.91;4995717;28;20065;-71
2021/01/23 07:34:01;;;;;;;2.40;1.70;;;2.30;86.20;;;0.60;83.06;94348.13;4988922;28;20096;-71
2021/01/23 07:36:47;;;;;;;2.70;1.88;;;2.30;86.60;;;0.63;84.98;94357.31;4987985;28;20413;-73
2021/01/23 07:39:17;;;;;;;1.73;1.33;;;2.40;86.60;;;0.63;83.82;94359.09;4988897;28;20031;-73
2021/01/23 07:41:57;;;;;;;2.42;1.67;;;2.30;86.70;;;0.65;84.30;94355.34;4987549;28;20571;-70
2021/01/23 07:44:26;;;;;;;2.60;1.73;;;2.30;86.30;;;0.66;83.33;94356.16;4972441;28;20461;-69
2021/01/23 07:46:52;;;;;;;3.05;1.95;;;2.40;86.20;;;0.66;82.74;94364.72;4966813;28;20043;-71
2021/01/23 07:49:25;;;;;;;2.25;1.63;;;2.30;86.40;;;0.68;83.91;94364.56;4968376;28;20049;-72
2021/01/23 07:51:51;;;;;;;6.47;3.60;;;2.40;86.20;;;0.67;82.69;94366.34;4987038;28;20474;-70
2021/01/23 07:54:17;;;;;;;6.70;3.97;;;2.40;86.30;;;0.70;83.37;94367.81;4987552;28;20042;-69
2021/01/23 07:56:54;;;;;;;4.20;2.67;;;2.40;86.30;;;0.69;84.73;94372.19;4986528;28;20054;-68
2021/01/23 07:59:45;;;;;;;2.65;1.85;;;2.40;86.30;;;0.73;84.78;94377.81;4971720;28;20498;-66
2021/01/23 08:02:11;;;;;;;2.15;1.55;;;2.40;85.90;;;0.72;82.84;94377.00;4988693;28;20053;-67
2021/01/23 08:04:38;;;;;;;1.50;1.23;;;2.40;86.00;;;0.73;82.94;94376.03;4986798;28;20035;-66
2021/01/23 08:07:30;;;;;;;2.28;1.67;;;2.40;86.20;;;0.73;84.79;94377.81;4988055;28;20109;-69
2021/01/23 08:10:18;;;;;;;2.95;1.40;;;2.40;86.10;;;0.75;84.75;94381.03;4981074;28;20282;-70
2021/01/23 08:12:59;;;;;;;4.30;1.52;;;2.50;86.10;;;0.75;84.58;94386.19;4987918;28;20041;-69
2021/01/23 08:15:35;;;;;;;2.35;1.50;;;2.50;86.00;;;0.76;83.23;94393.00;4988356;28;20461;-68
2021/01/23 08:18:01;;;;;;;4.70;2.25;;;2.50;86.00;;;0.76;83.10;94386.03;4988048;28;20042;-69
2021/01/23 08:20:37;;;;;;;3.38;2.05;;;2.60;85.80;;;0.79;84.16;94390.06;4988536;28;20045;-69
2021/01/23 08:23:13;;;;;;;3.80;2.08;;;2.60;85.90;;;0.80;84.16;94389.06;4987871;28;20065;-69
2021/01/23 08:25:49;;;;;;;2.47;1.63;;;2.50;85.70;;;0.81;83.90;94388.09;4991926;28;20118;-69
2021/01/23 08:28:33;;;;;;;2.10;1.73;;;2.60;85.70;;;0.84;84.54;94388.56;4990317;28;20383;-70
2021/01/23 08:31:19;;;;;;;2.63;1.60;;;2.70;85.50;;;0.84;85.09;94391.16;4989775;28;20154;-70
2021/01/23 08:33:52;;;;;;;2.90;2.30;;;2.60;85.80;;;0.85;82.65;94392.75;4991576;28;20053;-70
2021/01/23 08:36:18;;;;;;;8.38;4.63;;;2.60;85.60;;;0.87;82.51;94395.19;4992021;28;20564;-70
2021/01/23 08:38:45;;;;;;;7.88;4.50;;;2.60;85.70;;;0.88;82.54;94391.59;4973949;28;20042;-69
2021/01/23 08:41:11;;;;;;;10.02;5.10;;;2.60;85.60;;;0.89;82.28;94388.84;4974601;28;20105;-70
2021/01/23 08:43:37;;;;;;;8.48;4.05;;;2.70;85.40;;;0.93;82.84;94389.34;4990516;28;20505;-67
2021/01/23 08:46:02;;;;;;;10.32;5.72;;;2.80;85.10;;;0.94;82.32;94392.72;4991619;28;20093;-71
2021/01/23 08:48:28;;;;;;;4.45;2.72;;;2.70;85.40;;;0.96;82.52;94394.16;4991100;28;20133;-69
2021/01/23 08:50:54;;;;;;;5.80;3.60;;;2.80;85.00;;;1.00;82.33;94382.47;4990279;28;20046;-67
2021/01/23 08:53:20;;;;;;;5.43;3.10;;;2.90;84.60;;;1.02;82.45;94393.47;4991406;28;20061;-70
2021/01/23 08:55:45;;;;;;;10.88;7.28;;;2.90;84.80;;;1.06;82.21;94391.34;4991084;28;20058;-70
2021/01/23 08:58:11;;;;;;;8.70;4.55;;;2.90;84.60;;;1.10;82.41;94379.66;4991263;28;20034;-71
2021/01/23 09:00:37;;;;;;;7.88;4.45;;;3.10;84.00;;;1.14;82.07;94380.94;4991121;28;20042;-72
2021/01/23 09:03:03;;;;;;;4.25;2.80;;;3.10;83.70;;;1.18;82.78;94383.00;4990870;28;20035;-70
2021/01/23 09:05:29;;;;;;;4.63;3.00;;;3.10;83.60;;;1.24;81.86;94381.50;4991234;28;20035;-70
2021/01/23 09:07:55;;;;;;;8.77;4.80;;;3.20;83.80;;;1.30;82.47;94382.56;4990386;28;20035;-70
2021/01/23 09:10:21;;;;;;;7.70;4.32;;;3.40;83.20;;;1.33;82.36;94377.03;4989983;28;20042;-67
2021/01/23 09:12:47;;;;;;;6.35;3.30;;;3.30;82.60;;;1.37;81.69;94380.91;4990700;28;20125;-69
2021/01/23 09:15:14;;;;;;;5.22;3.28;;;3.30;82.70;;;1.40;81.40;94383.16;4970514;28;20031;-68
2021/01/23 09:17:39;;;;;;;4.43;2.83;;;3.30;82.60;;;1.42;81.84;94378.59;4976600;28;20030;-68
2021/01/23 09:20:07;;;;;;;8.10;4.90;;;3.40;82.80;;;1.46;81.72;94379.88;4990444;28;20038;-73
2021/01/23 09:22:33;;;;;;;6.72;3.80;;;3.30;82.40;;;1.48;82.02;94378.69;4989300;28;20027;-67
2021/01/23 09:24:59;;;;;;;4.82;3.13;;;3.40;82.70;;;1.53;81.95;94371.19;4993705;28;20030;-71
2021/01/23 09:27:28;;;;;;;5.72;3.38;;;3.50;82.00;;;1.58;81.98;94373.25;5009039;28;20030;-71
2021/01/23 09:29:54;;;;;;;10.43;6.60;;;3.50;82.10;;;1.63;81.80;94376.16;4994821;28;20038;-72
2021/01/23 09:32:20;;;;;;;6.47;4.00;;;3.60;82.00;;;1.65;81.45;94374.19;4990843;28;20093;-71
2021/01/23 09:34:46;;;;;;;6.60;4.40;;;3.50;81.20;;;1.69;81.80;94367.66;4995461;28;20411;-72
2021/01/23 09:37:12;;;;;;;4.05;2.90;;;3.60;81.70;;;1.75;81.00;94368.72;4990562;28;20037;-72
2021/01/23 09:39:38;;;;;;;4.35;2.70;;;3.80;81.10;;;1.79;80.36;94368.19;5007759;28;20113;-72
2021/01/23 09:42:04;;;;;;;4.22;2.42;;;3.80;80.30;;;1.80;80.70;94364.63;4990912;28;20034;-71
2021/01/23 09:44:29;;;;;;;5.88;3.45;;;3.80;80.20;;;1.92;80.81;94374.56;4991122;28;20061;-71
2021/01/23 09:46:55;;;;;;;4.63;2.53;;;4.10;80.00;;;1.99;80.56;94373.66;4993579;28;20529;-70
2021/01/23 09:49:21;;;;;;;4.47;2.78;;;4.20;79.30;;;2.12;80.65;94371.25;4994256;28;20062;-70
2021/01/23 09:51:48;;;;;;;4.47;2.80;;;4.40;78.10;;;2.25;80.75;94364.63;4990347;28;20053;-70
2021/01/23 09:54:13;;;;;;;5.03;2.50;;;4.60;78.50;;;2.40;81.03;94371.41;4994630;28;20121;-67
2021/01/23 09:56:39;;;;;;;3.30;2.50;;;4.80;77.50;;;2.58;80.26;94371.03;4989097;28;20538;-70
2021/01/23 09:59:05;;;;;;;6.05;3.47;;;5.10;77.30;;;2.76;79.57;94371.44;4995724;28;20054;-70
2021/01/23 10:01:30;;;;;;;16.67;9.75;;;5.30;75.80;;;2.97;79.67;94369.84;4990838;28;20046;-70
2021/01/23 10:03:56;;;;;;;4.57;2.42;;;5.60;74.80;;;3.13;79.66;94361.00;4990145;28;20042;-70
2021/01/23 10:06:23;;;;;;;3.00;2.17;;;5.60;73.90;;;3.27;79.43;94360.16;4988017;28;20159;-66
2021/01/23 10:08:49;;;;;;;2.97;1.95;;;5.90;73.80;;;3.44;78.65;94364.09;4988815;28;20160;-68
2021/01/23 10:11:14;;;;;;;2.60;1.85;;;6.10;72.40;;;3.50;78.60;94360.75;4990399;28;20038;-69
2021/01/23 10:13:40;;;;;;;5.03;2.03;;;5.90;72.00;;;3.53;78.56;94354.34;4989740;28;20597;-68
2021/01/23 10:16:06;;;;;;;3.25;2.20;;;6.00;71.60;;;3.74;78.01;94356.13;4972856;28;20101;-69
2021/01/23 10:18:35;;;;;;;2.90;1.75;;;6.40;70.90;;;3.87;77.92;94356.22;4989267;28;20133;-69
2021/01/23 10:21:03;;;;;;;8.23;4.35;;;6.50;69.60;;;4.05;77.12;94364.31;4988127;28;21122;-71
2021/01/23 10:23:29;;;;;;;2.72;2.00;;;6.90;67.00;;;4.20;77.34;94359.00;4987904;28;20042;-70
2021/01/23 10:25:55;;;;;;;2.88;2.03;;;6.90;66.80;;;4.30;76.84;94356.88;4989137;28;20150;-70
2021/01/23 10:28:21;;;;;;;4.80;1.98;;;7.00;66.90;;;4.44;76.76;94355.91;4988242;28;20551;-71
2021/01/23 10:30:46;;;;;;;2.75;1.90;;;7.10;66.10;;;4.55;76.27;94357.16;4988531;28;20042;-69
2021/01/23 10:33:12;;;;;;;4.80;2.53;;;7.20;65.10;;;4.61;76.23;94356.38;4989420;28;20042;-69
2021/01/23 10:35:38;;;;;;;4.45;2.70;;;7.10;65.90;;;4.67;75.76;94350.38;4989291;28;20459;-70
2021/01/23 10:38:04;;;;;;;3.95;2.47;;;7.50;65.50;;;4.84;75.90;94343.84;4988290;28;20065;-69
2021/01/23 10:40:29;;;;;;;3.40;2.28;;;7.50;64.30;;;4.91;74.96;94341.25;4989431;28;20030;-70